Angela, MT (59312)

5:57 PM MDT on August 22, 2014 (GMT -0600)
Wiley | Change Station
CLOSE
Current Station
Airport
Location: Miles City,
Elevation: 2628 ft
Nearby Weather Stations

Elev 2628 ft 46.43 °N, 105.88 °W | Updated 1 hour ago

Overcast
Overcast
71 °F
Feels Like 71 °F
N
15
Wind Variable Wind from NE

Today
High -- | Low -- °F
--% Chance of Precip.
Yesterday
High -- | Low -- °F
Precip. -- in
6:12 AM 8:03 PM
Waning Crescent, 6% visible
Pressure 29.98 in
Visibility 10.0 miles
Clouds Few 2900 ft
Few 4600 ft
Overcast 6500 ft
Dew Point 58 °F
Humidity 63%
Rainfall 0.00 in
Snow Depth Not available.
UV 1 out of 12
Pollen 5.40 out of 12
Air Quality Not available.
Flu Activity Not available.
METAR KMLS 222253Z AUTO 05013KT 10SM FEW029 FEW046 OVC065 22/14 A3001 RMK AO2 SLP151 T02170144

More Conditions Fewer Conditions

Pressure 29.98 in
Visibility 10.0 miles
Clouds Few 2900 ft
Few 4600 ft
Overcast 6500 ft
Dew Point 58 °F
Humidity 63%
Rainfall 0.00 in
Snow Depth Not available.
UV 1 out of 12
Pollen 5.40 out of 12
Air Quality Not available.
Flu Activity Not available.
METAR KMLS 222253Z AUTO 05013KT 10SM FEW029 FEW046 OVC065 22/14 A3001 RMK AO2 SLP151 T02170144

More Conditions Fewer Conditions

10-Day Weather Forecast

Almanac

Astronomy

Aug. 22, 2014 Rise Set
Actual Time 6:12 AM MDT 8:03 PM MDT
Civil Twilight 5:40 AM MDT 8:35 PM MDT
Nautical Twilight 5:00 AM MDT 9:14 PM MDT
Astronomical Twilight 4:17 AM MDT 9:58 PM MDT
Moon 3:33 AM MDT 6:16 PM MDT
Length of Visible Light 14h 55m
Length of Day
13h 50m
Tomorrow will be 3m 7s shorter.
Waning Crescent, 6% of the Moon is Illuminated
Today
Waning Crescent
Aug 25
New
Sep 2
First Quarter
Sep 8
Full
Sep 15
Last Quarter

Today's Extremes

State Highs State Lows

Community

WunderPhotos

Upload Photos

1,746,310 photos uploaded!

WunderBlogs® & News

By Dr. Jeff Masters
Director of Meteorology, Weather Underground
By Kari Strenfel
Meteorologist, Weather Underground
By Christopher C. Burt
Weather Historian, Weather Underground
August 22, 2014
August 22, 2014
August 22, 2014

Nearby

Snow Depth

Station Depth Elevation
Crystal Lake 0 in 6050 ft
Burnt Mountain 0 in 5880 ft
Daisy Peak 0 in 7600 ft
South Fork Shields 0 in 8100 ft
Porcupine 1 in 6500 ft

Earthquake Activity

City Distance Mag. Time & Date
No recent earthquake activity has been reported nearby.
Minimum magnitude displayed is 2.5.

Coastal Water Temperatures

Place Temperature
No Stations Reporting

Nearby Weather Stations